createdAt,value
2022-11-14T00:01:28.769Z,59.70
2022-11-14T00:03:55.630Z,61.03
2022-11-14T00:06:22.492Z,56.00
2022-11-14T00:08:49.313Z,53.33
2022-11-14T00:11:16.243Z,62.50
2022-11-14T00:13:47.750Z,54.63
2022-11-14T00:16:16.880Z,72.83
2022-11-14T00:18:43.711Z,56.10
2022-11-14T00:21:10.580Z,52.40
2022-11-14T00:23:39.905Z,62.20
2022-11-14T00:26:09.311Z,57.37
2022-11-14T00:28:36.236Z,52.53
2022-11-14T00:31:06.123Z,49.87
2022-11-14T00:33:33.079Z,54.50
2022-11-14T00:35:59.916Z,58.53
2022-11-14T00:38:26.947Z,62.47
2022-11-14T00:40:54.058Z,66.03
2022-11-14T00:43:22.999Z,61.40
2022-11-14T00:45:50.109Z,59.27
2022-11-14T00:48:21.586Z,60.53
2022-11-14T00:50:50.634Z,63.57
2022-11-14T00:53:17.530Z,53.03
2022-11-14T00:55:44.471Z,61.90
2022-11-14T00:58:11.392Z,60.83
2022-11-14T01:00:39.046Z,59.77
2022-11-14T01:03:10.988Z,59.70
2022-11-14T01:05:47.681Z,70.63
2022-11-14T01:08:16.552Z,76.57
2022-11-14T01:10:47.814Z,59.57
2022-11-14T01:13:16.631Z,60.67
2022-11-14T01:15:46.981Z,62.10
2022-11-14T01:18:18.930Z,63.73
2022-11-14T01:20:48.170Z,61.47
2022-11-14T01:23:16.524Z,62.37
2022-11-14T01:25:44.134Z,56.13
2022-11-14T01:28:17.516Z,61.87
2022-11-14T01:30:44.948Z,61.73
2022-11-14T01:33:11.835Z,61.83
2022-11-14T01:35:39.246Z,66.80
2022-11-14T01:38:06.666Z,59.33
2022-11-14T01:40:34.493Z,60.67
2022-11-14T01:43:16.646Z,66.00
2022-11-14T01:45:55.029Z,60.27
2022-11-14T01:48:34.442Z,65.73
2022-11-14T01:51:11.488Z,67.93
2022-11-14T01:53:38.584Z,73.93
2022-11-14T01:56:10.013Z,63.70
2022-11-14T01:58:41.596Z,63.47
2022-11-14T02:01:08.474Z,59.53
2022-11-14T02:03:39.528Z,65.03
2022-11-14T02:06:12.699Z,66.57
2022-11-14T02:08:42.839Z,62.97
2022-11-14T02:11:17.832Z,67.27
2022-11-14T02:13:44.764Z,62.97
2022-11-14T02:16:14.308Z,62.43
2022-11-14T02:18:41.184Z,65.07
2022-11-14T02:21:10.161Z,67.30
2022-11-14T02:23:41.515Z,71.67
2022-11-14T02:26:08.392Z,68.97
2022-11-14T02:28:37.787Z,62.43
2022-11-14T02:31:07.139Z,66.33
2022-11-14T02:33:33.993Z,69.03
2022-11-14T02:36:00.824Z,67.60
2022-11-14T02:38:28.030Z,68.87
2022-11-14T02:40:55.161Z,64.87
2022-11-14T02:43:22.007Z,70.03
2022-11-14T02:45:48.887Z,70.60
2022-11-14T02:48:15.824Z,66.67
2022-11-14T02:50:43.262Z,61.77
2022-11-14T02:53:10.174Z,65.90
2022-11-14T02:55:41.593Z,71.93
2022-11-14T02:58:08.550Z,65.73
2022-11-14T03:00:38.486Z,68.10
2022-11-14T03:03:11.356Z,68.47
2022-11-14T03:05:40.520Z,84.20
2022-11-14T03:08:14.445Z,64.07
2022-11-14T03:10:46.125Z,64.93
2022-11-14T03:13:17.333Z,65.50
2022-11-14T03:15:44.247Z,66.50
2022-11-14T03:18:13.763Z,73.93
2022-11-14T03:20:40.906Z,69.33
2022-11-14T03:23:10.716Z,68.80
2022-11-14T03:25:39.892Z,59.07
2022-11-14T03:28:11.382Z,65.90
2022-11-14T03:30:38.231Z,69.40
2022-11-14T03:33:05.077Z,65.27
2022-11-14T03:35:31.928Z,60.77
2022-11-14T03:38:00.894Z,68.00
2022-11-14T03:40:27.816Z,73.50
2022-11-14T03:42:54.679Z,70.40
2022-11-14T03:45:21.567Z,70.10
2022-11-14T03:47:48.388Z,67.67
2022-11-14T03:50:15.260Z,65.87
2022-11-14T03:52:42.145Z,68.33
2022-11-14T03:55:09.154Z,65.33
2022-11-14T03:57:38.993Z,68.10
2022-11-14T04:00:09.545Z,71.90
2022-11-14T04:02:39.485Z,69.73
2022-11-14T04:05:07.034Z,67.63
2022-11-14T04:07:33.964Z,67.60
2022-11-14T04:10:02.992Z,80.23
2022-11-14T04:12:31.972Z,63.43
2022-11-14T04:14:58.796Z,72.67
2022-11-14T04:17:27.953Z,70.30
2022-11-14T04:19:57.831Z,67.70
2022-11-14T04:22:26.892Z,74.20
2022-11-14T04:24:53.733Z,67.00
2022-11-14T04:27:27.695Z,71.17
2022-11-14T04:29:56.792Z,69.47
2022-11-14T04:32:26.171Z,63.03
2022-11-14T04:34:56.446Z,74.67
2022-11-14T04:37:25.573Z,72.43
2022-11-14T04:39:58.544Z,73.13
2022-11-14T04:42:28.180Z,82.50
2022-11-14T04:44:55.126Z,76.83
2022-11-14T04:47:22.055Z,66.77
2022-11-14T04:49:51.263Z,77.73
2022-11-14T04:52:22.879Z,76.10
2022-11-14T04:54:49.752Z,75.23
2022-11-14T04:57:17.838Z,69.77
2022-11-14T04:59:44.751Z,73.50
2022-11-14T05:02:13.947Z,79.60
2022-11-14T05:04:44.424Z,74.23
2022-11-14T05:07:11.751Z,74.10
2022-11-14T05:09:38.673Z,79.40
2022-11-14T05:12:08.301Z,71.77
2022-11-14T05:14:38.619Z,80.73
2022-11-14T05:17:07.800Z,78.23
2022-11-14T05:19:34.696Z,66.17
2022-11-14T05:22:06.256Z,83.63
2022-11-14T05:24:35.630Z,67.40
2022-11-14T05:27:02.568Z,73.27
2022-11-14T05:29:31.895Z,72.90
2022-11-14T05:32:01.267Z,78.60
2022-11-14T05:34:28.250Z,80.27
2022-11-14T05:36:57.648Z,82.57
2022-11-14T05:39:24.544Z,82.30
2022-11-14T05:41:51.425Z,84.37
2022-11-14T05:44:22.829Z,80.57
2022-11-14T05:46:49.723Z,76.53
2022-11-14T05:49:20.734Z,81.90
2022-11-14T05:51:51.366Z,80.43
2022-11-14T05:54:18.230Z,80.93
2022-11-14T05:56:47.661Z,83.20
2022-11-14T05:59:14.486Z,87.83
2022-11-14T06:01:41.461Z,93.03
2022-11-14T06:04:17.959Z,90.77
2022-11-14T06:06:49.630Z,86.47
2022-11-14T06:09:16.523Z,100.37
2022-11-14T06:11:43.437Z,85.47
2022-11-14T06:14:11.270Z,95.20
2022-11-14T06:16:41.323Z,87.43
2022-11-14T06:19:08.177Z,92.97
2022-11-14T06:21:35.047Z,82.90
2022-11-14T06:24:02.050Z,89.70
2022-11-14T06:26:31.359Z,105.97
2022-11-14T06:29:01.433Z,90.17
2022-11-14T06:31:30.641Z,98.03
2022-11-14T06:33:57.458Z,91.57
2022-11-14T06:36:26.962Z,80.13
2022-11-14T06:38:56.316Z,95.30
2022-11-14T06:41:28.324Z,86.60
2022-11-14T06:43:55.334Z,94.67
2022-11-14T06:46:23.818Z,73.83
2022-11-14T06:48:52.551Z,82.67
2022-11-14T06:51:22.017Z,82.53
2022-11-14T06:53:48.965Z,93.13
2022-11-14T06:56:21.898Z,93.67
2022-11-14T06:58:52.115Z,82.73
2022-11-14T07:01:27.340Z,83.30
2022-11-14T07:03:54.378Z,80.97
2022-11-14T07:06:24.890Z,82.97
2022-11-14T07:08:56.208Z,77.53
2022-11-14T07:11:33.198Z,86.80
2022-11-14T07:14:03.461Z,84.83
2022-11-14T07:16:36.820Z,75.53
2022-11-14T07:19:11.074Z,86.50
2022-11-14T07:21:38.814Z,89.20
2022-11-14T07:24:06.153Z,84.47
2022-11-14T07:26:35.318Z,80.20
2022-11-14T07:29:03.060Z,97.20
2022-11-14T07:31:32.343Z,91.87
2022-11-14T07:33:59.463Z,76.37
2022-11-14T07:36:26.342Z,97.73
2022-11-14T07:38:55.391Z,79.57
2022-11-14T07:41:25.062Z,88.63
2022-11-14T07:43:51.992Z,83.63
2022-11-14T07:46:21.384Z,80.00
2022-11-14T07:48:48.203Z,84.67
2022-11-14T07:51:20.235Z,80.90
2022-11-14T07:53:49.621Z,74.43
2022-11-14T07:56:20.228Z,89.10
2022-11-14T07:58:50.098Z,80.87
2022-11-14T08:01:16.947Z,81.23
2022-11-14T08:03:46.111Z,82.80
2022-11-14T08:06:19.438Z,85.57
2022-11-14T08:08:46.329Z,83.33
2022-11-14T08:11:36.431Z,75.70
2022-11-14T08:14:05.468Z,76.90
2022-11-14T08:16:32.369Z,77.00
2022-11-14T08:19:04.696Z,71.73
2022-11-14T08:21:31.534Z,78.87
2022-11-14T08:24:00.912Z,73.17
2022-11-14T08:26:31.535Z,72.20
2022-11-14T08:29:01.292Z,79.30
2022-11-14T08:31:28.617Z,71.30
2022-11-14T08:33:55.566Z,68.20
2022-11-14T08:36:25.560Z,66.73
2022-11-14T08:39:00.534Z,72.47
2022-11-14T08:41:31.312Z,72.93
2022-11-14T08:44:02.766Z,87.40
2022-11-14T08:46:29.752Z,72.10
2022-11-14T08:48:56.665Z,74.47
2022-11-14T08:51:23.642Z,70.83
2022-11-14T08:53:53.600Z,67.77
2022-11-14T08:56:20.493Z,71.67
2022-11-14T08:58:47.325Z,67.50
2022-11-14T09:01:17.178Z,77.10
2022-11-14T09:03:44.162Z,75.37
2022-11-14T09:06:11.218Z,64.17
2022-11-14T09:08:38.095Z,78.20
2022-11-14T09:11:09.235Z,69.70
2022-11-14T09:13:36.830Z,67.33
2022-11-14T09:16:08.594Z,68.67
2022-11-14T09:18:37.816Z,74.57
2022-11-14T09:21:12.524Z,78.03
2022-11-14T09:23:39.460Z,66.80
2022-11-14T09:26:08.896Z,69.70
2022-11-14T09:28:36.896Z,66.30
2022-11-14T09:31:07.522Z,87.10
2022-11-14T09:33:35.478Z,73.77
2022-11-14T09:36:08.589Z,75.83
2022-11-14T09:38:40.039Z,74.20
2022-11-14T09:41:40.247Z,71.13
2022-11-14T09:44:39.258Z,69.30
2022-11-14T09:47:21.009Z,68.47
2022-11-14T09:49:51.770Z,64.50
2022-11-14T09:52:48.038Z,61.13
2022-11-14T09:55:21.961Z,66.27
2022-11-14T09:57:48.990Z,63.43
2022-11-14T10:00:23.343Z,56.50
2022-11-14T10:03:25.331Z,64.70
2022-11-14T10:06:32.734Z,67.77
2022-11-14T10:09:30.778Z,59.40
2022-11-14T10:12:15.590Z,56.30
2022-11-14T10:14:58.527Z,59.90
2022-11-14T10:17:56.091Z,59.10
2022-11-14T10:20:51.059Z,66.00
2022-11-14T10:24:15.377Z,61.43
2022-11-14T10:27:42.043Z,65.23
2022-11-14T10:30:19.440Z,60.57
2022-11-14T10:32:55.211Z,61.13
2022-11-14T10:35:48.067Z,61.27
2022-11-14T10:38:48.585Z,54.33
2022-11-14T10:41:34.669Z,56.90
2022-11-14T10:44:19.036Z,59.03
2022-11-14T10:46:51.351Z,54.60
2022-11-14T10:49:26.118Z,52.40
2022-11-14T10:51:59.061Z,60.70
2022-11-14T10:54:44.088Z,50.83
2022-11-14T10:57:22.543Z,57.93
2022-11-14T10:59:52.847Z,44.70
2022-11-14T11:02:19.778Z,46.50
2022-11-14T11:04:46.746Z,58.73
2022-11-14T11:07:40.348Z,43.50
2022-11-14T11:10:40.139Z,46.73
2022-11-14T11:13:12.599Z,49.80
2022-11-14T11:15:45.927Z,50.10
2022-11-14T11:18:29.189Z,45.63
2022-11-14T11:21:08.333Z,41.50
2022-11-14T11:23:47.593Z,43.03
2022-11-14T11:26:28.377Z,51.63
2022-11-14T11:29:23.680Z,44.27
2022-11-14T11:31:58.600Z,41.27
2022-11-14T11:34:32.737Z,39.33
2022-11-14T11:37:16.053Z,43.83
2022-11-14T11:39:53.020Z,41.93
2022-11-14T11:43:37.328Z,44.83
2022-11-14T11:45:53.480Z,44.90
2022-11-14T11:48:26.443Z,39.43
2022-11-14T11:50:53.698Z,35.83
2022-11-14T11:53:39.254Z,38.07
2022-11-14T11:56:13.305Z,43.73
2022-11-14T11:58:48.525Z,45.40
2022-11-14T12:01:19.669Z,42.33
2022-11-14T12:03:54.501Z,47.40
2022-11-14T12:06:28.511Z,39.63
2022-11-14T12:09:15.189Z,39.00
2022-11-14T12:12:04.795Z,42.00
2022-11-14T12:14:55.499Z,42.67
2022-11-14T12:17:34.239Z,41.63
2022-11-14T12:20:32.063Z,39.30
2022-11-14T12:23:25.777Z,36.60
2022-11-14T12:26:20.289Z,39.03
2022-11-14T12:29:46.252Z,41.80
2022-11-14T12:32:30.427Z,38.50
2022-11-14T12:35:03.796Z,42.33
2022-11-14T12:37:40.409Z,40.83
2022-11-14T12:40:42.409Z,36.57
2022-11-14T12:43:36.482Z,46.20
2022-11-14T12:46:09.224Z,40.57
2022-11-14T12:48:41.411Z,41.67
2022-11-14T12:51:28.501Z,40.47
2022-11-14T12:53:59.278Z,39.97
2022-11-14T12:56:32.217Z,40.40
2022-11-14T12:59:22.845Z,43.87
2022-11-14T13:01:52.566Z,44.43
2022-11-14T13:04:42.507Z,40.37
2022-11-14T13:07:33.851Z,47.23
2022-11-14T13:10:34.810Z,40.80
2022-11-14T13:13:33.811Z,45.43
2022-11-14T13:16:34.634Z,36.97
2022-11-14T13:19:38.583Z,44.90
2022-11-14T13:22:11.540Z,47.87
2022-11-14T13:25:02.353Z,45.03
2022-11-14T13:28:05.130Z,39.77
2022-11-14T13:31:18.458Z,61.97
2022-11-14T13:34:04.162Z,44.93
2022-11-14T13:36:44.136Z,44.27
2022-11-14T13:39:34.830Z,44.07
2022-11-14T13:42:41.564Z,41.30
2022-11-14T13:45:41.472Z,44.27
2022-11-14T13:48:29.011Z,42.73
2022-11-14T13:51:28.521Z,40.60
2022-11-14T13:53:54.950Z,47.13
2022-11-14T13:57:07.422Z,40.77
2022-11-14T13:59:46.497Z,48.30
2022-11-14T14:02:21.251Z,44.93
2022-11-14T14:05:21.861Z,43.10
2022-11-14T14:08:28.028Z,46.90
2022-11-14T14:11:16.420Z,39.40
2022-11-14T14:14:17.261Z,45.63
2022-11-14T14:17:02.694Z,42.73
2022-11-14T14:19:41.090Z,48.57
2022-11-14T14:22:32.765Z,50.07
2022-11-14T14:25:29.227Z,38.53
2022-11-14T14:28:20.290Z,45.67
2022-11-14T14:31:02.590Z,43.53
2022-11-14T14:33:44.156Z,41.10
2022-11-14T14:36:28.049Z,43.77
2022-11-14T14:39:18.577Z,42.00
2022-11-14T14:41:48.291Z,41.83
2022-11-14T14:44:33.700Z,42.17
2022-11-14T14:47:24.514Z,42.37
2022-11-14T14:49:53.485Z,36.93
2022-11-14T14:52:35.979Z,49.80
2022-11-14T14:55:06.586Z,46.50
2022-11-14T14:57:33.494Z,41.17
2022-11-14T15:00:01.999Z,45.80
2022-11-14T15:02:30.010Z,42.77
2022-11-14T15:05:00.531Z,44.77
2022-11-14T15:07:29.847Z,51.40
2022-11-14T15:10:03.952Z,44.63
2022-11-14T15:12:32.503Z,45.97
2022-11-14T15:15:00.968Z,43.33
2022-11-14T15:17:34.545Z,39.23
2022-11-14T15:20:03.114Z,44.20
2022-11-14T15:22:32.693Z,48.10
2022-11-14T15:25:15.019Z,43.97
2022-11-14T15:27:54.194Z,47.30
2022-11-14T15:30:30.798Z,45.50
2022-11-14T15:33:05.776Z,52.17
2022-11-14T15:35:35.928Z,49.53
2022-11-14T15:41:19.135Z,44.03
2022-11-14T15:43:53.289Z,49.67
2022-11-14T15:46:29.279Z,50.37
2022-11-14T15:48:56.360Z,49.63
2022-11-14T15:52:00.725Z,43.67
2022-11-14T15:54:33.310Z,46.60
2022-11-14T15:57:14.404Z,45.23
2022-11-14T15:59:43.604Z,47.47
2022-11-14T16:02:21.973Z,48.77
2022-11-14T16:04:52.034Z,47.13
2022-11-14T16:07:19.271Z,43.13
2022-11-14T16:09:49.133Z,44.60
2022-11-14T16:12:16.192Z,44.87
2022-11-14T16:14:45.658Z,47.20
2022-11-14T16:17:17.587Z,45.37
2022-11-14T16:19:45.007Z,49.70
2022-11-14T16:22:20.182Z,50.13
2022-11-14T16:24:49.489Z,43.40
2022-11-14T16:27:16.299Z,51.70
2022-11-14T16:29:46.206Z,45.93
2022-11-14T16:32:13.217Z,55.03
2022-11-14T16:34:42.223Z,51.53
2022-11-14T16:37:13.555Z,49.77
2022-11-14T16:39:43.189Z,48.57
2022-11-14T16:42:11.305Z,50.63
2022-11-14T16:44:42.933Z,49.60
2022-11-14T16:47:22.926Z,49.10
2022-11-14T16:49:58.852Z,53.63
2022-11-14T16:52:28.714Z,46.37
2022-11-14T16:54:56.060Z,48.80
2022-11-14T16:57:29.637Z,55.80
2022-11-14T16:59:58.966Z,51.37
2022-11-14T17:02:26.276Z,51.77
2022-11-14T17:04:53.133Z,50.47
2022-11-14T17:07:23.094Z,50.77
2022-11-14T17:09:50.119Z,51.13
2022-11-14T17:12:17.029Z,62.53
2022-11-14T17:14:43.935Z,54.10
2022-11-14T17:17:10.828Z,47.60
2022-11-14T17:19:45.552Z,52.93
2022-11-14T17:22:13.937Z,56.60
2022-11-14T17:24:43.979Z,55.60
2022-11-14T17:27:12.865Z,49.77
2022-11-14T17:29:42.389Z,47.67
2022-11-14T17:32:09.286Z,49.80
2022-11-14T17:34:36.189Z,48.73
2022-11-14T17:37:03.171Z,51.93
2022-11-14T17:39:35.037Z,53.17
2022-11-14T17:42:02.035Z,49.73
2022-11-14T17:44:32.076Z,45.83
2022-11-14T17:46:58.963Z,51.30
2022-11-14T17:49:28.154Z,53.83
2022-11-14T17:51:55.065Z,45.00
2022-11-14T17:54:22.000Z,52.20
2022-11-14T17:56:54.652Z,47.77
2022-11-14T17:59:22.172Z,46.43
2022-11-14T18:01:54.542Z,61.73
2022-11-14T18:04:24.543Z,47.17
2022-11-14T18:06:51.910Z,51.50
2022-11-14T18:09:18.882Z,51.83
2022-11-14T18:11:48.740Z,59.70
2022-11-14T18:14:22.697Z,51.37
2022-11-14T18:17:11.859Z,50.20
2022-11-14T18:19:38.674Z,51.20
2022-11-14T18:22:05.587Z,51.87
2022-11-14T18:24:32.528Z,53.97
2022-11-14T18:26:59.430Z,52.27
2022-11-14T18:29:28.341Z,47.17
2022-11-14T18:31:55.175Z,57.60
2022-11-14T18:34:22.113Z,49.87
2022-11-14T18:36:49.078Z,46.90
2022-11-14T18:39:20.481Z,47.40
2022-11-14T18:41:47.376Z,50.47
2022-11-14T18:44:21.080Z,52.53
2022-11-14T18:46:47.950Z,44.30
2022-11-14T18:49:14.872Z,49.43
2022-11-14T18:51:42.064Z,53.47
2022-11-14T18:54:18.864Z,47.13
2022-11-14T18:56:48.321Z,48.60
2022-11-14T18:59:18.308Z,55.90
2022-11-14T19:01:47.728Z,50.63
2022-11-14T19:04:17.301Z,47.73
2022-11-14T19:06:44.301Z,49.60
2022-11-14T19:09:16.059Z,47.50
2022-11-14T19:12:02.534Z,53.57
2022-11-14T19:14:29.484Z,51.80
2022-11-14T19:16:59.550Z,49.73
2022-11-14T19:19:29.116Z,55.00
2022-11-14T19:21:58.597Z,59.73
2022-11-14T19:24:25.479Z,46.07
2022-11-14T19:26:52.421Z,48.37
2022-11-14T19:29:23.849Z,48.23
2022-11-14T19:31:50.750Z,53.13
2022-11-14T19:34:20.610Z,50.27
2022-11-14T19:36:59.871Z,46.80
2022-11-14T19:39:33.313Z,50.87
2022-11-14T19:42:04.783Z,49.60
2022-11-14T19:44:32.025Z,50.63
2022-11-14T19:46:58.966Z,56.80
2022-11-14T19:49:25.878Z,55.30
2022-11-14T19:51:55.785Z,56.00
2022-11-14T19:54:22.676Z,47.17
2022-11-14T19:56:49.558Z,52.60
2022-11-14T19:59:21.365Z,47.60
2022-11-14T20:01:55.251Z,47.30
2022-11-14T20:04:23.034Z,53.47
2022-11-14T20:06:50.233Z,49.10
2022-11-14T20:09:19.765Z,51.63
2022-11-14T20:11:46.737Z,53.73
2022-11-14T20:14:13.746Z,49.03
2022-11-14T20:16:40.842Z,54.40
2022-11-14T20:19:08.015Z,50.30
2022-11-14T20:21:39.945Z,52.30
2022-11-14T20:24:10.685Z,54.80
2022-11-14T20:26:37.690Z,49.90
2022-11-14T20:29:06.862Z,54.63
2022-11-14T20:31:33.787Z,52.70
2022-11-14T20:34:00.852Z,52.43
2022-11-14T20:36:39.005Z,46.83
2022-11-14T20:39:20.116Z,56.23
2022-11-14T20:41:47.665Z,52.67
2022-11-14T20:44:14.729Z,50.20
2022-11-14T20:46:41.679Z,50.83
2022-11-14T20:49:11.078Z,49.87
2022-11-14T20:51:38.112Z,51.60
2022-11-14T20:54:05.166Z,50.60
2022-11-14T20:56:32.151Z,55.43
2022-11-14T20:59:02.082Z,68.13
2022-11-14T21:01:29.010Z,56.33
2022-11-14T21:03:55.926Z,50.33
2022-11-14T21:06:27.287Z,48.60
2022-11-14T21:08:57.171Z,46.97
2022-11-14T21:11:24.037Z,45.83
2022-11-14T21:13:59.329Z,47.27
2022-11-14T21:16:31.934Z,51.60
2022-11-14T21:19:03.267Z,52.83
2022-11-14T21:21:33.917Z,52.63
2022-11-14T21:24:04.082Z,49.77
2022-11-14T21:26:34.650Z,48.47
2022-11-14T21:29:09.026Z,54.80
2022-11-14T21:31:42.187Z,47.47
2022-11-14T21:34:15.090Z,49.93
2022-11-14T21:36:46.384Z,54.30
2022-11-14T21:39:16.504Z,46.03
2022-11-14T21:41:48.400Z,49.83
2022-11-14T21:44:17.025Z,46.77
2022-11-14T21:46:47.226Z,52.37
2022-11-14T21:49:14.463Z,46.30
2022-11-14T21:51:41.441Z,45.93
2022-11-14T21:54:11.511Z,52.60
2022-11-14T21:56:40.492Z,50.20
2022-11-14T21:59:21.295Z,46.27
2022-11-14T22:02:11.168Z,56.23
2022-11-14T22:04:41.224Z,49.13
2022-11-14T22:07:08.648Z,43.47
2022-11-14T22:09:38.713Z,49.23
2022-11-14T22:12:08.269Z,46.30
2022-11-14T22:14:35.116Z,53.33
2022-11-14T22:17:01.992Z,44.90
2022-11-14T22:19:28.827Z,45.93
2022-11-14T22:21:55.935Z,43.13
2022-11-14T22:24:25.381Z,47.40
2022-11-14T22:26:52.311Z,47.30
2022-11-14T22:29:19.186Z,48.17
2022-11-14T22:31:46.263Z,45.00
2022-11-14T22:34:13.346Z,48.67
2022-11-14T22:36:40.277Z,49.37
2022-11-14T22:39:07.139Z,47.73
2022-11-14T22:41:34.156Z,47.23
2022-11-14T22:44:01.657Z,55.00
2022-11-14T22:46:32.172Z,46.40
2022-11-14T22:48:59.298Z,48.83
2022-11-14T22:51:28.000Z,44.53
2022-11-14T22:53:58.464Z,45.50
2022-11-14T22:56:28.917Z,45.90
2022-11-14T22:58:58.835Z,56.80
2022-11-14T23:01:31.661Z,47.20
2022-11-14T23:04:04.809Z,52.53
2022-11-14T23:06:34.241Z,52.13
2022-11-14T23:09:02.791Z,48.13
2022-11-14T23:11:31.585Z,45.23
2022-11-14T23:14:00.543Z,45.53
2022-11-14T23:16:31.254Z,43.83
2022-11-14T23:19:02.836Z,42.10
2022-11-14T23:21:37.030Z,51.77
2022-11-14T23:24:08.637Z,44.27
2022-11-14T23:26:35.548Z,41.83
2022-11-14T23:29:05.317Z,41.77
2022-11-14T23:31:34.691Z,50.20
2022-11-14T23:34:01.588Z,48.23
2022-11-14T23:36:29.280Z,46.50
2022-11-14T23:38:56.298Z,48.53
2022-11-14T23:41:27.918Z,42.60
2022-11-14T23:43:54.779Z,43.83
2022-11-14T23:46:21.717Z,44.20
2022-11-14T23:48:51.291Z,49.50
2022-11-14T23:51:20.764Z,52.03
2022-11-14T23:53:50.638Z,40.40
2022-11-14T23:56:17.563Z,48.07
2022-11-14T23:58:49.118Z,42.23
